Time;durP1;ratioP1;P1;durP2;ratioP2;P2;SDS_P1;SDS_P2;PMS_P1;PMS_P2;Temp;Humidity;BMP_temperature;BMP_pressure;BME280_temperature;BME280_humidity;BME280_pressure;Samples;Min_cycle;Max_cycle;Signal;HPM_P1;HPM_P2
2023/12/14 00:01:28;;;;;;;1.35;1.00;;;6.00;99.90;;;;;;4965975;28;20043;-78
2023/12/14 00:03:54;;;;;;;2.30;2.10;;;5.90;99.90;;;;;;4964842;28;20026;-78
2023/12/14 00:06:20;;;;;;;2.70;2.50;;;5.90;99.90;;;;;;4960230;28;20031;-78
2023/12/14 00:08:47;;;;;;;1.88;1.25;;;5.90;99.90;;;;;;4965168;28;20038;-78
2023/12/14 00:11:13;;;;;;;1.55;1.45;;;5.80;99.90;;;;;;4965604;28;20035;-78
2023/12/14 00:13:39;;;;;;;1.23;1.08;;;5.70;99.90;;;;;;4966158;28;20039;-77
2023/12/14 00:16:07;;;;;;;4.28;2.00;;;5.70;99.90;;;;;;4970115;28;20035;-78
2023/12/14 00:18:33;;;;;;;1.92;1.83;;;5.70;99.90;;;;;;4959811;28;20027;-78
2023/12/14 00:20:59;;;;;;;1.05;0.98;;;5.60;99.90;;;;;;4964086;28;20038;-78
2023/12/14 00:23:26;;;;;;;1.42;1.35;;;5.60;99.90;;;;;;4967667;28;20034;-78
2023/12/14 00:25:53;;;;;;;2.42;1.17;;;5.50;99.90;;;;;;4962468;28;20047;-78
2023/12/14 00:28:19;;;;;;;5.03;1.73;;;5.50;99.90;;;;;;4963866;28;20035;-78
2023/12/14 00:30:45;;;;;;;2.33;1.75;;;5.50;99.90;;;;;;4962828;28;20051;-77
2023/12/14 00:33:11;;;;;;;3.60;2.75;;;5.40;99.90;;;;;;4966942;28;20037;-78
2023/12/14 00:35:38;;;;;;;3.97;2.35;;;5.40;99.90;;;;;;4960786;28;20039;-78
2023/12/14 00:38:04;;;;;;;5.82;2.42;;;5.40;99.90;;;;;;4961126;28;20051;-78
2023/12/14 00:40:30;;;;;;;2.25;1.77;;;5.30;99.90;;;;;;4964463;28;20035;-77
2023/12/14 00:42:56;;;;;;;1.63;1.52;;;5.20;99.90;;;;;;4965054;28;20026;-78
2023/12/14 00:45:22;;;;;;;1.42;1.33;;;5.10;99.90;;;;;;4963380;28;20397;-78
2023/12/14 00:47:48;;;;;;;2.47;2.28;;;5.10;99.90;;;;;;4961810;28;20059;-78
2023/12/14 00:50:15;;;;;;;0.50;0.50;;;5.10;99.90;;;;;;4960658;28;20496;-80
2023/12/14 00:52:41;;;;;;;0.95;0.95;;;5.00;99.90;;;;;;4962721;28;20038;-77
2023/12/14 00:55:07;;;;;;;1.15;1.13;;;5.00;99.90;;;;;;4965710;28;20030;-78
2023/12/14 00:57:33;;;;;;;0.88;0.85;;;4.90;99.90;;;;;;4964839;28;20057;-78
2023/12/14 01:00:00;;;;;;;3.13;1.92;;;4.90;99.90;;;;;;4963136;28;20028;-79
2023/12/14 01:02:26;;;;;;;1.40;1.25;;;4.90;99.90;;;;;;4962245;28;20041;-79
2023/12/14 01:04:52;;;;;;;2.10;1.98;;;4.80;99.90;;;;;;4965518;28;20034;-79
2023/12/14 01:07:18;;;;;;;3.92;1.80;;;4.80;99.90;;;;;;4964546;28;20027;-78
2023/12/14 01:09:44;;;;;;;0.93;0.77;;;4.70;99.90;;;;;;4957913;28;20043;-76
2023/12/14 01:12:10;;;;;;;1.15;1.05;;;4.70;99.90;;;;;;4961674;28;20046;-76
2023/12/14 01:14:36;;;;;;;3.10;1.55;;;4.70;99.90;;;;;;4967077;28;20031;-76
2023/12/14 01:17:03;;;;;;;1.63;1.52;;;4.70;99.90;;;;;;4966858;28;20380;-76
2023/12/14 01:19:29;;;;;;;5.30;2.67;;;4.70;99.90;;;;;;4967673;28;20047;-77
2023/12/14 01:21:55;;;;;;;1.67;1.58;;;4.70;99.90;;;;;;4962080;28;20028;-76
2023/12/14 01:24:21;;;;;;;1.50;1.40;;;4.70;99.90;;;;;;4963428;28;20038;-79
2023/12/14 01:26:47;;;;;;;0.73;0.73;;;4.80;99.90;;;;;;4968924;28;20036;-79
2023/12/14 01:29:13;;;;;;;2.03;1.92;;;4.80;99.90;;;;;;4967219;28;20042;-79
2023/12/14 01:31:40;;;;;;;1.67;1.58;;;4.90;99.90;;;;;;4968393;28;20038;-78
2023/12/14 01:34:06;;;;;;;2.80;2.10;;;4.90;99.90;;;;;;4962296;28;20034;-78
2023/12/14 01:36:32;;;;;;;0.95;0.95;;;5.00;99.90;;;;;;4969579;28;20031;-80
2023/12/14 01:38:58;;;;;;;0.57;0.52;;;5.00;99.90;;;;;;4966614;28;20047;-79
2023/12/14 01:41:24;;;;;;;2.40;1.58;;;5.00;99.90;;;;;;4964751;28;20380;-78
2023/12/14 01:43:50;;;;;;;1.73;1.60;;;5.00;99.90;;;;;;4962102;28;20035;-78
2023/12/14 01:46:17;;;;;;;0.60;0.60;;;5.00;99.90;;;;;;4967354;28;20050;-78
2023/12/14 01:48:43;;;;;;;1.92;1.45;;;5.00;99.90;;;;;;4968660;28;20046;-78
2023/12/14 01:51:09;;;;;;;2.47;2.25;;;5.00;99.90;;;;;;4968186;28;20039;-79
2023/12/14 01:53:35;;;;;;;1.40;1.35;;;5.00;99.90;;;;;;4963808;28;20049;-79
2023/12/14 01:56:01;;;;;;;1.38;1.30;;;5.00;99.90;;;;;;4961225;28;20383;-79
2023/12/14 01:58:27;;;;;;;3.63;2.28;;;5.00;99.90;;;;;;4969017;28;20815;-79
2023/12/14 02:01:18;;;;;;;1.80;1.65;;;5.00;99.90;;;;;;4969208;28;20038;-79
2023/12/14 02:03:50;;;;;;;2.72;2.53;;;5.00;99.90;;;;;;4966516;28;20054;-78
2023/12/14 02:06:16;;;;;;;1.33;1.23;;;5.00;99.90;;;;;;4962673;28;20039;-79
2023/12/14 02:08:42;;;;;;;1.08;1.08;;;4.90;99.90;;;;;;4967738;28;20031;-77
2023/12/14 02:11:08;;;;;;;1.33;1.00;;;5.00;99.90;;;;;;4968293;28;20043;-78
2023/12/14 02:13:34;;;;;;;2.88;2.67;;;5.00;99.90;;;;;;4964466;28;20031;-79
2023/12/14 02:16:01;;;;;;;1.92;1.35;;;5.00;99.90;;;;;;4960760;28;20043;-79
2023/12/14 02:18:27;;;;;;;1.98;1.88;;;5.00;99.90;;;;;;4968512;28;20031;-79
2023/12/14 02:20:53;;;;;;;1.35;1.27;;;5.00;99.90;;;;;;4967779;28;20042;-79
2023/12/14 02:23:19;;;;;;;2.03;1.88;;;5.10;99.90;;;;;;4968012;28;20042;-78
2023/12/14 02:25:45;;;;;;;2.92;1.48;;;5.10;99.90;;;;;;4960072;28;20498;-80
2023/12/14 02:28:11;;;;;;;0.45;0.45;;;5.00;99.90;;;;;;4968094;28;20380;-79
2023/12/14 02:30:38;;;;;;;2.83;2.63;;;5.10;99.90;;;;;;4968341;28;20038;-79
2023/12/14 02:33:04;;;;;;;3.85;2.40;;;5.00;99.90;;;;;;4969257;28;20041;-79
2023/12/14 02:35:30;;;;;;;2.33;1.88;;;5.10;99.90;;;;;;4962539;28;20042;-79
2023/12/14 02:37:56;;;;;;;1.33;1.27;;;5.10;99.90;;;;;;4965283;28;20503;-78
2023/12/14 02:40:22;;;;;;;4.22;1.83;;;5.10;99.90;;;;;;4979812;28;20046;-78
2023/12/14 02:42:48;;;;;;;6.13;1.30;;;5.10;99.90;;;;;;4971284;28;20027;-77
2023/12/14 02:45:14;;;;;;;4.38;3.47;;;5.10;99.90;;;;;;4964035;28;20031;-79
2023/12/14 02:47:41;;;;;;;3.08;1.95;;;5.10;99.90;;;;;;4958948;28;20063;-79
2023/12/14 02:50:07;;;;;;;1.55;1.45;;;5.20;99.90;;;;;;4965216;28;20035;-78
2023/12/14 02:52:35;;;;;;;3.03;2.35;;;5.20;99.90;;;;;;4967010;28;20502;-78
2023/12/14 02:55:01;;;;;;;2.15;2.05;;;5.30;99.90;;;;;;4965971;28;20039;-78
2023/12/14 02:57:27;;;;;;;5.90;2.80;;;5.40;99.90;;;;;;4961716;28;20059;-78
2023/12/14 02:59:53;;;;;;;1.60;1.42;;;5.40;99.90;;;;;;4965755;28;20039;-77
2023/12/14 03:02:19;;;;;;;2.30;2.10;;;5.50;99.90;;;;;;4966059;28;20030;-78
2023/12/14 03:04:46;;;;;;;1.85;1.70;;;5.50;99.90;;;;;;4958961;28;20460;-76
2023/12/14 03:07:12;;;;;;;2.88;1.75;;;5.50;99.90;;;;;;4963978;28;20054;-78
2023/12/14 03:09:43;;;;;;;3.65;1.90;;;5.50;99.90;;;;;;4963074;28;20035;-78
2023/12/14 03:12:09;;;;;;;;;;;5.50;99.90;;;;;;4964811;28;20030;-78
2023/12/14 03:14:35;;;;;;;1.42;1.33;;;5.50;99.90;;;;;;4966838;28;19948;-77
2023/12/14 03:17:02;;;;;;;6.38;4.00;;;5.50;99.90;;;;;;4964648;28;20035;-78
2023/12/14 03:19:28;;;;;;;2.13;1.95;;;5.50;99.90;;;;;;4960563;28;20036;-78
2023/12/14 03:21:55;;;;;;;1.30;1.20;;;5.60;99.90;;;;;;4966379;28;20103;-77
2023/12/14 03:24:21;;;;;;;1.95;1.85;;;5.50;99.90;;;;;;4968317;28;20037;-77
2023/12/14 03:26:47;;;;;;;2.10;1.90;;;5.50;99.90;;;;;;4963680;28;20039;-76
2023/12/14 03:29:13;;;;;;;3.67;2.65;;;5.50;99.90;;;;;;4964458;28;20030;-78
2023/12/14 03:31:40;;;;;;;4.32;2.35;;;5.60;99.90;;;;;;4965183;28;20380;-77
2023/12/14 03:34:06;;;;;;;1.63;1.52;;;5.60;99.90;;;;;;4964097;28;20051;-77
2023/12/14 03:36:32;;;;;;;3.75;1.77;;;5.60;99.90;;;;;;4964643;28;20031;-77
2023/12/14 03:38:58;;;;;;;2.50;2.22;;;5.60;99.90;;;;;;4966048;28;20034;-77
2023/12/14 03:41:24;;;;;;;0.98;0.98;;;5.60;99.90;;;;;;4961357;28;20046;-77
2023/12/14 03:43:50;;;;;;;1.40;1.30;;;5.60;99.90;;;;;;4962998;28;20026;-79
2023/12/14 03:46:16;;;;;;;1.10;0.80;;;5.60;99.90;;;;;;4966107;28;20047;-76
2023/12/14 03:48:43;;;;;;;2.05;1.75;;;5.60;99.90;;;;;;4966969;28;20057;-79
2023/12/14 03:51:09;;;;;;;1.30;1.20;;;5.50;99.90;;;;;;4966036;28;20034;-80
2023/12/14 03:53:35;;;;;;;1.60;1.50;;;5.50;99.90;;;;;;4961194;28;20035;-80
2023/12/14 03:56:01;;;;;;;2.35;2.15;;;5.50;99.90;;;;;;4967119;28;20055;-79
2023/12/14 03:58:27;;;;;;;5.10;3.17;;;5.50;99.90;;;;;;4965216;28;20055;-80
2023/12/14 04:00:53;;;;;;;3.70;3.35;;;5.50;99.90;;;;;;4963466;28;20046;-79
2023/12/14 04:03:19;;;;;;;1.80;1.27;;;5.40;99.90;;;;;;4961502;28;20103;-80
2023/12/14 04:05:46;;;;;;;1.35;1.25;;;5.40;99.90;;;;;;4963211;28;20042;-78
2023/12/14 04:08:12;;;;;;;3.90;2.78;;;5.40;99.90;;;;;;4965859;28;20042;-77
2023/12/14 04:10:38;;;;;;;2.38;1.90;;;5.40;99.90;;;;;;4965477;28;20039;-77
2023/12/14 04:13:04;;;;;;;4.18;3.22;;;5.40;99.90;;;;;;4963474;28;20035;-77
2023/12/14 04:15:30;;;;;;;1.17;1.08;;;5.30;99.90;;;;;;4959151;28;20046;-80
2023/12/14 04:17:56;;;;;;;1.98;1.48;;;5.40;99.90;;;;;;4967031;28;20039;-79
2023/12/14 04:20:22;;;;;;;0.77;0.77;;;5.40;99.90;;;;;;4967047;28;20034;-79
2023/12/14 04:22:49;;;;;;;0.90;0.90;;;5.40;99.90;;;;;;4963451;28;20053;-78
2023/12/14 04:25:15;;;;;;;0.77;0.68;;;5.40;99.90;;;;;;4961887;28;20396;-78
2023/12/14 04:27:41;;;;;;;2.38;2.08;;;5.40;99.90;;;;;;4965068;28;20046;-79
2023/12/14 04:30:11;;;;;;;1.58;1.45;;;5.40;99.90;;;;;;4963686;28;20042;-79
2023/12/14 04:32:38;;;;;;;1.70;1.55;;;5.40;99.90;;;;;;4964013;28;20412;-78
2023/12/14 04:35:05;;;;;;;1.13;1.13;;;5.40;99.90;;;;;;4958098;28;20049;-78
2023/12/14 04:37:32;;;;;;;3.22;2.70;;;5.40;99.90;;;;;;4964697;28;20034;-79
2023/12/14 04:39:58;;;;;;;3.33;2.05;;;5.40;99.90;;;;;;4964204;28;20519;-78
2023/12/14 04:42:24;;;;;;;2.47;1.42;;;5.40;99.90;;;;;;4966639;28;20484;-79
2023/12/14 04:44:50;;;;;;;1.70;1.60;;;5.40;99.90;;;;;;4960197;28;20409;-78
2023/12/14 04:47:16;;;;;;;2.08;1.88;;;5.40;99.90;;;;;;4952510;28;20055;-79
2023/12/14 04:49:43;;;;;;;2.15;1.95;;;5.40;99.90;;;;;;4960060;28;20400;-78
2023/12/14 04:52:09;;;;;;;1.20;1.15;;;5.50;99.90;;;;;;4964738;28;20034;-77
2023/12/14 04:54:37;;;;;;;0.70;0.70;;;5.50;99.90;;;;;;4962787;28;20036;-78
2023/12/14 04:57:04;;;;;;;2.78;2.58;;;5.60;99.90;;;;;;4962995;28;20453;-78
2023/12/14 04:59:30;;;;;;;1.23;1.00;;;5.60;99.90;;;;;;4964211;28;20038;-78
2023/12/14 05:01:56;;;;;;;2.33;2.13;;;5.60;99.90;;;;;;4967114;28;20031;-79
2023/12/14 05:04:22;;;;;;;3.38;3.08;;;5.60;99.90;;;;;;4965436;28;20034;-78
2023/12/14 05:06:48;;;;;;;2.17;1.98;;;5.60;99.90;;;;;;4963205;28;20035;-78
2023/12/14 05:09:14;;;;;;;0.40;0.40;;;5.60;99.90;;;;;;4959634;28;20046;-82
2023/12/14 05:11:41;;;;;;;6.90;3.20;;;5.60;99.90;;;;;;4965664;28;20042;-79
2023/12/14 05:14:07;;;;;;;1.73;1.63;;;5.60;99.90;;;;;;4967381;28;20472;-79
2023/12/14 05:16:34;;;;;;;2.40;1.95;;;5.50;99.90;;;;;;4961807;28;20039;-79
2023/12/14 05:19:00;;;;;;;1.80;1.63;;;5.60;99.90;;;;;;4960537;28;20473;-80
2023/12/14 05:21:26;;;;;;;1.77;1.67;;;5.60;99.90;;;;;;4965275;28;20058;-79
2023/12/14 05:23:53;;;;;;;2.63;2.42;;;5.50;99.90;;;;;;4966714;28;20035;-79
2023/12/14 05:26:19;;;;;;;2.83;2.30;;;5.50;99.90;;;;;;4965544;28;20473;-78
2023/12/14 05:28:45;;;;;;;5.32;1.98;;;5.50;99.90;;;;;;4965198;28;20031;-78
2023/12/14 05:31:11;;;;;;;1.75;1.65;;;5.60;99.90;;;;;;4965031;28;20046;-78
2023/12/14 05:33:39;;;;;;;0.80;0.80;;;5.50;99.90;;;;;;4964528;28;20038;-78
2023/12/14 05:36:10;;;;;;;2.92;2.72;;;5.50;99.90;;;;;;4962559;28;20027;-78
2023/12/14 05:38:39;;;;;;;1.40;1.35;;;5.50;99.90;;;;;;4959964;28;20035;-78
2023/12/14 05:41:05;;;;;;;1.60;1.50;;;5.50;99.90;;;;;;4963672;28;20042;-77
2023/12/14 05:43:31;;;;;;;1.63;1.33;;;5.50;99.90;;;;;;4963795;28;20058;-78
2023/12/14 05:45:57;;;;;;;1.58;1.33;;;5.50;99.90;;;;;;4964453;28;20479;-78
2023/12/14 05:48:24;;;;;;;0.88;0.88;;;5.50;99.90;;;;;;4961137;28;20039;-78
2023/12/14 05:50:51;;;;;;;2.17;2.03;;;5.50;99.90;;;;;;4960386;28;20058;-78
2023/12/14 05:53:17;;;;;;;2.28;1.20;;;5.50;99.90;;;;;;4963997;28;20035;-78
2023/12/14 05:55:44;;;;;;;3.33;2.95;;;5.50;99.90;;;;;;4966192;28;20035;-78
2023/12/14 05:58:10;;;;;;;3.45;2.10;;;5.50;99.90;;;;;;4961755;28;20067;-77
2023/12/14 06:00:37;;;;;;;1.55;1.10;;;5.50;99.90;;;;;;4961420;28;20054;-78
2023/12/14 06:03:03;;;;;;;0.73;0.73;;;5.50;99.90;;;;;;4966194;28;20038;-77
2023/12/14 06:05:29;;;;;;;2.40;0.70;;;5.50;99.90;;;;;;4967428;28;20492;-77
2023/12/14 06:07:55;;;;;;;2.67;2.47;;;5.50;99.90;;;;;;4966957;28;20468;-77
2023/12/14 06:10:22;;;;;;;2.65;1.73;;;5.50;99.90;;;;;;4965191;28;20486;-78
2023/12/14 06:12:48;;;;;;;2.47;2.28;;;5.50;99.90;;;;;;4965974;28;20031;-78
2023/12/14 06:15:14;;;;;;;2.67;2.33;;;5.50;99.90;;;;;;4967326;28;20251;-77
2023/12/14 06:17:42;;;;;;;2.60;2.40;;;5.50;99.90;;;;;;4967968;28;20041;-78
2023/12/14 06:20:09;;;;;;;4.53;2.47;;;5.50;99.90;;;;;;4967319;28;20039;-77
2023/12/14 06:22:38;;;;;;;1.52;1.42;;;5.50;99.90;;;;;;4963813;28;20042;-78
2023/12/14 06:25:05;;;;;;;1.75;1.65;;;5.50;99.90;;;;;;4963688;28;20046;-78
2023/12/14 06:27:31;;;;;;;2.47;2.00;;;5.50;99.90;;;;;;4969090;28;20039;-77
2023/12/14 06:29:59;;;;;;;3.70;1.80;;;5.50;99.90;;;;;;4963723;28;20054;-77
2023/12/14 06:32:25;;;;;;;2.05;1.67;;;5.50;99.90;;;;;;4961421;28;20043;-78
2023/12/14 06:34:51;;;;;;;2.13;2.00;;;5.50;99.90;;;;;;4964492;28;20035;-78
2023/12/14 06:37:17;;;;;;;2.42;1.85;;;5.50;99.90;;;;;;4966790;28;20035;-78
2023/12/14 06:39:43;;;;;;;2.33;2.03;;;5.50;99.90;;;;;;4965930;28;20031;-78
2023/12/14 06:42:10;;;;;;;2.08;1.95;;;5.40;99.90;;;;;;4968137;28;20065;-78
2023/12/14 06:44:36;;;;;;;2.53;2.33;;;5.50;99.90;;;;;;4962879;28;20031;-78
2023/12/14 06:47:02;;;;;;;3.88;2.05;;;5.50;99.90;;;;;;4965251;28;20051;-78
2023/12/14 06:49:28;;;;;;;1.38;1.33;;;5.50;99.90;;;;;;4966635;28;20031;-78
2023/12/14 06:51:54;;;;;;;2.97;1.63;;;5.50;99.90;;;;;;4967151;28;20032;-77
2023/12/14 06:54:21;;;;;;;2.20;1.98;;;5.50;99.90;;;;;;4939455;28;20070;-78
2023/12/14 06:56:47;;;;;;;3.80;2.90;;;5.50;99.90;;;;;;4962523;28;20031;-78
2023/12/14 06:59:13;;;;;;;3.10;2.50;;;5.50;99.90;;;;;;4966108;28;20035;-78
2023/12/14 07:01:40;;;;;;;5.95;3.38;;;5.50;99.90;;;;;;4965730;28;20038;-78
2023/12/14 07:04:07;;;;;;;5.18;4.68;;;5.50;99.90;;;;;;4960686;28;20035;-78
2023/12/14 07:06:35;;;;;;;2.20;2.00;;;5.50;99.90;;;;;;4966029;28;20038;-78
2023/12/14 07:09:01;;;;;;;1.30;1.20;;;5.60;99.90;;;;;;4963985;28;20038;-78
2023/12/14 07:11:27;;;;;;;3.28;3.08;;;5.60;99.90;;;;;;4966733;28;20038;-78
2023/12/14 07:13:54;;;;;;;2.42;1.98;;;5.60;99.90;;;;;;4965994;28;20046;-78
2023/12/14 07:16:20;;;;;;;1.67;1.45;;;5.60;99.90;;;;;;4961706;28;20049;-78
2023/12/14 07:18:46;;;;;;;4.47;2.58;;;5.60;99.90;;;;;;4966413;28;20456;-81
2023/12/14 07:21:13;;;;;;;3.03;2.83;;;5.60;99.90;;;;;;4966832;28;20042;-78
2023/12/14 07:23:39;;;;;;;4.13;2.50;;;5.60;99.90;;;;;;4968569;28;20468;-77
2023/12/14 07:26:05;;;;;;;2.10;1.90;;;5.60;99.90;;;;;;4961364;28;20503;-77
2023/12/14 07:28:32;;;;;;;3.30;1.52;;;5.60;99.90;;;;;;4960368;28;20031;-77
2023/12/14 07:30:58;;;;;;;5.28;3.78;;;5.70;99.90;;;;;;4966860;28;20042;-76
2023/12/14 07:33:24;;;;;;;6.88;2.63;;;5.70;99.90;;;;;;4964666;28;20039;-77
2023/12/14 07:35:51;;;;;;;2.55;2.35;;;5.60;99.90;;;;;;4964104;28;20038;-76
2023/12/14 07:38:17;;;;;;;0.50;0.50;;;5.70;99.90;;;;;;4963650;28;20038;-76
2023/12/14 07:40:43;;;;;;;4.57;3.03;;;5.70;99.90;;;;;;4968024;28;20038;-76
2023/12/14 07:43:09;;;;;;;3.72;1.92;;;5.70;99.90;;;;;;4965666;28;20054;-76
2023/12/14 07:45:35;;;;;;;1.77;1.67;;;5.70;99.90;;;;;;4966877;28;20035;-76
2023/12/14 07:48:03;;;;;;;2.78;2.50;;;5.80;99.90;;;;;;4958148;28;20062;-76
2023/12/14 07:50:29;;;;;;;2.50;2.30;;;5.80;99.90;;;;;;4965768;28;20046;-77
2023/12/14 07:52:56;;;;;;;2.08;1.90;;;5.80;99.90;;;;;;4964972;28;20038;-76
2023/12/14 07:55:22;;;;;;;0.60;0.60;;;5.80;99.90;;;;;;4967873;28;20033;-77
2023/12/14 07:57:48;;;;;;;3.28;3.00;;;5.90;99.90;;;;;;4961670;28;20519;-74
2023/12/14 08:00:15;;;;;;;4.97;3.58;;;5.90;99.90;;;;;;4961189;28;20042;-76
2023/12/14 08:02:42;;;;;;;3.55;3.17;;;5.90;99.90;;;;;;4966753;28;20043;-76
2023/12/14 08:05:09;;;;;;;0.90;0.90;;;6.00;99.90;;;;;;4964449;28;20043;-75
2023/12/14 08:07:35;;;;;;;3.78;3.08;;;6.00;99.90;;;;;;4963454;28;20105;-76
2023/12/14 08:10:01;;;;;;;9.13;3.63;;;6.00;99.90;;;;;;4956825;28;20396;-76
2023/12/14 08:12:28;;;;;;;1.13;1.08;;;6.10;99.90;;;;;;4964021;28;20046;-76
2023/12/14 08:14:54;;;;;;;2.53;2.33;;;6.10;99.90;;;;;;4966818;28;20392;-76
2023/12/14 08:17:20;;;;;;;2.50;2.30;;;6.20;99.90;;;;;;4963173;28;20054;-75
2023/12/14 08:19:47;;;;;;;1.13;1.05;;;6.20;99.90;;;;;;4961434;28;20370;-75
2023/12/14 08:22:15;;;;;;;0.60;0.60;;;6.20;99.90;;;;;;4964624;28;20057;-75
2023/12/14 08:24:44;;;;;;;1.38;1.27;;;6.30;99.90;;;;;;4964181;28;20027;-75
2023/12/14 08:27:10;;;;;;;3.03;2.13;;;6.40;99.90;;;;;;4966192;28;20053;-75
2023/12/14 08:29:36;;;;;;;1.35;1.25;;;6.40;99.90;;;;;;4961314;28;20035;-75
2023/12/14 08:32:03;;;;;;;2.25;2.05;;;6.40;99.90;;;;;;4962001;28;20472;-75
2023/12/14 08:34:29;;;;;;;1.35;1.25;;;6.40;99.90;;;;;;4964359;28;20099;-76
2023/12/14 08:36:55;;;;;;;3.10;2.45;;;6.50;99.90;;;;;;4967156;28;20043;-75
2023/12/14 08:39:21;;;;;;;1.00;1.00;;;6.50;99.90;;;;;;4962272;28;20050;-75
2023/12/14 08:41:48;;;;;;;1.55;1.45;;;6.50;99.90;;;;;;4958328;28;20046;-75
2023/12/14 08:44:14;;;;;;;3.10;2.78;;;6.60;99.90;;;;;;4963563;28;20034;-75
2023/12/14 08:46:43;;;;;;;2.90;1.70;;;6.60;99.90;;;;;;4966522;28;20401;-76
2023/12/14 08:49:10;;;;;;;2.00;1.88;;;6.60;99.90;;;;;;4944623;28;20053;-75
2023/12/14 08:51:38;;;;;;;1.88;1.77;;;6.60;99.90;;;;;;4961269;28;20047;-75
2023/12/14 08:54:05;;;;;;;1.65;1.55;;;6.60;99.90;;;;;;4962392;28;20046;-75
2023/12/14 08:56:31;;;;;;;2.00;1.77;;;6.70;99.90;;;;;;4964410;28;20039;-75
2023/12/14 08:58:59;;;;;;;3.58;2.63;;;6.70;99.90;;;;;;4963715;28;20070;-75
2023/12/14 09:01:25;;;;;;;1.75;1.65;;;6.80;99.90;;;;;;4965078;28;20038;-75
2023/12/14 09:03:51;;;;;;;2.65;2.45;;;6.80;99.90;;;;;;4960811;28;20051;-74
2023/12/14 09:06:18;;;;;;;2.30;1.83;;;6.90;99.90;;;;;;4961982;28;20042;-75
2023/12/14 09:08:45;;;;;;;2.15;1.85;;;6.90;99.90;;;;;;4964462;28;20400;-75
2023/12/14 09:11:11;;;;;;;3.47;2.88;;;6.90;99.90;;;;;;4965245;28;20065;-75
2023/12/14 09:13:37;;;;;;;3.08;2.88;;;6.90;99.90;;;;;;4957528;28;20047;-75
2023/12/14 09:16:04;;;;;;;1.75;1.65;;;6.90;99.90;;;;;;4960885;28;20035;-75
2023/12/14 09:18:30;;;;;;;3.28;2.97;;;6.90;99.90;;;;;;4965205;28;20038;-75
2023/12/14 09:20:56;;;;;;;2.08;1.65;;;7.00;99.90;;;;;;4963617;28;20050;-75
2023/12/14 09:23:23;;;;;;;1.52;1.20;;;7.00;99.90;;;;;;4962273;28;20038;-75
2023/12/14 09:25:49;;;;;;;1.45;1.35;;;7.00;99.90;;;;;;4960111;28;20077;-75
2023/12/14 09:28:15;;;;;;;1.73;1.58;;;7.10;99.90;;;;;;4952010;28;20520;-75
2023/12/14 09:30:42;;;;;;;0.52;0.52;;;7.10;99.90;;;;;;4965252;28;20035;-76
2023/12/14 09:33:08;;;;;;;0.65;0.65;;;7.20;99.90;;;;;;4964746;28;20050;-75
2023/12/14 09:35:38;;;;;;;1.65;1.55;;;7.20;99.90;;;;;;4964327;28;20026;-76
2023/12/14 09:38:07;;;;;;;1.73;1.63;;;7.30;99.90;;;;;;4962338;28;20035;-75
2023/12/14 09:40:34;;;;;;;1.00;0.63;;;7.40;99.90;;;;;;4965723;28;20046;-75
2023/12/14 09:43:00;;;;;;;1.85;0.77;;;7.30;99.90;;;;;;4968613;28;20481;-75
2023/12/14 09:45:30;;;;;;;2.00;1.17;;;7.40;99.90;;;;;;4962401;28;20031;-75
2023/12/14 09:47:57;;;;;;;2.00;1.45;;;7.50;99.90;;;;;;4958585;28;20090;-76
2023/12/14 09:50:24;;;;;;;0.55;0.55;;;7.50;99.90;;;;;;4957851;28;20195;-76
2023/12/14 09:52:51;;;;;;;3.15;2.85;;;7.50;99.90;;;;;;4961705;28;20050;-76
2023/12/14 09:55:17;;;;;;;1.75;1.38;;;7.60;99.90;;;;;;4966581;28;20453;-76
2023/12/14 09:57:43;;;;;;;1.30;1.20;;;7.60;99.90;;;;;;4961640;28;20031;-76
2023/12/14 10:00:11;;;;;;;1.80;1.65;;;7.60;99.90;;;;;;4966495;28;20042;-76
2023/12/14 10:02:37;;;;;;;1.70;1.23;;;7.70;98.00;;;;;;4966534;28;20424;-76
2023/12/14 10:05:09;;;;;;;2.85;1.35;;;7.70;68.10;;;;;;4964050;28;20388;-75
2023/12/14 10:07:43;;;;;;;1.60;1.10;;;7.80;33.50;;;;;;4967607;28;20043;-75
2023/12/14 10:10:13;;;;;;;25.58;2.40;;;7.80;29.70;;;;;;4963467;28;20046;-75
2023/12/14 10:12:55;;;;;;;1.05;1.05;;;7.80;16.00;;;;;;4967073;28;20093;-76
2023/12/14 10:15:24;;;;;;;3.13;1.60;;;7.90;9.70;;;;;;4968113;28;20035;-75
2023/12/14 10:17:55;;;;;;;1.90;1.77;;;8.00;1.00;;;;;;4964369;28;20039;-76
2023/12/14 10:20:21;;;;;;;1.75;1.63;;;8.00;1.00;;;;;;4961631;28;20039;-75
2023/12/14 10:22:51;;;;;;;1.77;1.30;;;8.10;1.00;;;;;;4966086;28;20496;-75
2023/12/14 10:25:20;;;;;;;0.82;0.82;;;8.10;1.00;;;;;;4968117;28;20038;-75
2023/12/14 10:27:55;;;;;;;1.10;1.00;;;8.10;1.00;;;;;;4963301;28;20488;-75
2023/12/14 10:30:21;;;;;;;4.25;1.48;;;8.10;1.00;;;;;;4965115;28;20037;-75
2023/12/14 10:32:48;;;;;;;1.77;1.42;;;8.20;1.00;;;;;;4966909;28;20910;-78
2023/12/14 10:35:16;;;;;;;1.20;1.13;;;8.20;99.90;;;;;;4966717;28;20035;-74
2023/12/14 10:37:45;;;;;;;2.85;1.55;;;8.30;99.90;;;;;;4968233;28;20026;-75
2023/12/14 10:40:13;;;;;;;0.60;0.52;;;8.30;99.90;;;;;;4960250;28;20031;-75
2023/12/14 10:42:43;;;;;;;4.30;1.60;;;8.30;99.90;;;;;;4964663;28;20046;-75
2023/12/14 10:45:13;;;;;;;2.00;0.95;;;8.30;99.90;;;;;;4966218;28;20031;-75
2023/12/14 10:47:42;;;;;;;2.95;2.05;;;8.30;99.90;;;;;;4966424;28;20073;-75
2023/12/14 10:50:11;;;;;;;1.67;1.58;;;8.30;99.90;;;;;;4962756;28;20050;-75
2023/12/14 10:52:39;;;;;;;1.38;0.93;;;8.30;99.90;;;;;;4960768;28;20593;-75
2023/12/14 10:55:28;;;;;;;1.77;1.50;;;8.30;99.90;;;;;;4966681;28;20047;-75
2023/12/14 10:57:54;;;;;;;0.73;0.70;;;8.30;99.90;;;;;;4969133;28;20407;-78
2023/12/14 11:00:20;;;;;;;1.13;1.13;;;8.40;99.90;;;;;;4964691;28;20406;-75
2023/12/14 11:02:47;;;;;;;1.00;0.98;;;8.40;99.90;;;;;;4944043;28;20057;-75
2023/12/14 11:05:16;;;;;;;1.48;1.10;;;8.50;99.90;;;;;;4950970;28;20429;-75
2023/12/14 11:07:54;;;;;;;1.40;0.63;;;8.50;99.90;;;;;;4957490;28;20045;-76
2023/12/14 11:10:35;;;;;;;1.33;1.00;;;8.50;99.90;;;;;;4958233;28;20384;-76
2023/12/14 11:13:03;;;;;;;2.55;1.73;;;8.50;99.90;;;;;;4960639;28;20051;-75
2023/12/14 11:15:33;;;;;;;3.42;1.83;;;8.60;99.90;;;;;;4965514;28;20043;-76
2023/12/14 11:18:08;;;;;;;1.42;1.33;;;8.60;99.90;;;;;;4955910;28;20039;-76
2023/12/14 11:21:00;;;;;;;0.52;0.52;;;8.60;99.90;;;;;;4962313;28;20038;-76
2023/12/14 11:23:33;;;;;;;0.50;0.50;;;8.70;99.90;;;;;;4962415;28;20385;-74
2023/12/14 11:26:09;;;;;;;2.45;1.48;;;8.70;99.90;;;;;;4965627;28;20388;-76
2023/12/14 11:28:43;;;;;;;1.40;0.88;;;8.70;99.90;;;;;;4964581;28;20048;-78
2023/12/14 11:31:10;;;;;;;1.65;1.08;;;8.60;98.20;;;;;;4966198;28;20372;-79
2023/12/14 11:33:37;;;;;;;1.35;1.23;;;8.50;66.60;;;;;;4956702;28;20469;-78
2023/12/14 11:36:03;;;;;;;2.53;0.98;;;8.50;46.30;;;;;;4965132;28;20035;-78
2023/12/14 11:38:31;;;;;;;2.75;1.98;;;8.50;70.80;;;;;;4966970;28;20035;-78
2023/12/14 11:40:58;;;;;;;6.03;1.08;;;8.50;74.70;;;;;;4972570;28;20369;-77
2023/12/14 11:43:26;;;;;;;0.68;0.68;;;8.50;42.10;;;;;;4959238;28;20372;-77
2023/12/14 11:45:54;;;;;;;0.95;0.90;;;8.50;28.00;;;;;;4961093;28;20034;-77
2023/12/14 11:48:20;;;;;;;1.33;0.75;;;8.60;49.10;;;;;;4965691;28;20038;-79
2023/12/14 11:50:47;;;;;;;0.70;0.70;;;8.60;21.70;;;;;;4968825;28;20392;-78
2023/12/14 11:53:13;;;;;;;1.13;1.00;;;8.70;11.40;;;;;;4962500;28;20046;-77
2023/12/14 11:55:42;;;;;;;1.02;0.95;;;8.60;19.80;;;;;;4961161;28;20042;-78
2023/12/14 11:58:11;;;;;;;1.13;1.10;;;8.60;8.50;;;;;;4964003;28;20476;-77
2023/12/14 12:00:39;;;;;;;1.15;0.77;;;8.60;21.20;;;;;;4965684;28;20039;-78
2023/12/14 12:03:16;;;;;;;1.13;0.70;;;8.60;23.80;;;;;;4959405;28;20047;-78
2023/12/14 12:05:45;;;;;;;1.05;0.93;;;8.60;19.00;;;;;;4950748;28;20031;-77
2023/12/14 12:08:12;;;;;;;2.67;2.00;;;8.60;9.30;;;;;;4957089;28;20027;-78
2023/12/14 12:10:40;;;;;;;0.88;0.88;;;8.50;17.30;;;;;;4965374;28;20031;-78
2023/12/14 12:13:11;;;;;;;1.20;1.10;;;8.50;1.00;;;;;;4968525;28;20051;-77
2023/12/14 12:15:37;;;;;;;1.17;1.02;;;8.50;2.10;;;;;;4962898;28;20035;-77
2023/12/14 12:18:06;;;;;;;0.68;0.68;;;8.40;8.30;;;;;;4959781;28;20038;-77
2023/12/14 12:20:33;;;;;;;9.75;1.90;;;8.40;1.00;;;;;;4964228;28;20408;-77
2023/12/14 12:22:59;;;;;;;0.85;0.82;;;8.30;1.00;;;;;;4966035;28;20041;-77
2023/12/14 12:25:27;;;;;;;1.02;1.02;;;8.30;1.00;;;;;;4964846;28;20042;-77
2023/12/14 12:27:57;;;;;;;3.03;1.27;;;8.30;4.90;;;;;;4960690;28;20039;-77
2023/12/14 12:30:23;;;;;;;2.10;1.27;;;8.20;4.20;;;;;;4963523;28;20039;-77
2023/12/14 12:32:51;;;;;;;3.50;1.90;;;8.30;2.70;;;;;;4965113;28;20369;-76
2023/12/14 12:35:21;;;;;;;3.60;1.23;;;8.30;4.50;;;;;;4963754;28;20046;-76
2023/12/14 12:37:53;;;;;;;3.92;2.20;;;8.30;1.00;;;;;;4961724;28;20046;-77
2023/12/14 12:40:20;;;;;;;2.63;2.42;;;8.40;3.70;;;;;;4960792;28;20034;-77
2023/12/14 12:42:48;;;;;;;1.15;1.02;;;8.40;1.00;;;;;;4966504;28;20046;-77
2023/12/14 12:45:16;;;;;;;0.40;0.40;;;8.40;1.00;;;;;;4934800;28;20038;-76
2023/12/14 12:47:43;;;;;;;0.80;0.80;;;8.50;1.00;;;;;;4961262;28;20061;-76
2023/12/14 12:50:09;;;;;;;0.55;0.55;;;8.50;1.00;;;;;;4962688;28;20396;-77
2023/12/14 12:52:37;;;;;;;1.40;1.30;;;8.60;1.00;;;;;;4964495;28;20071;-77
2023/12/14 12:55:07;;;;;;;1.00;0.75;;;8.60;1.00;;;;;;4966465;28;20035;-77
2023/12/14 12:57:33;;;;;;;1.38;1.27;;;8.60;1.00;;;;;;4960827;28;20031;-75